Time;durP1;ratioP1;P1;durP2;ratioP2;P2;SDS_P1;SDS_P2;PMS_P1;PMS_P2;Temp;Humidity;BMP_temperature;BMP_pressure;BME280_temperature;BME280_humidity;BME280_pressure;Samples;Min_cycle;Max_cycle;Signal;HPM_P1;HPM_P2
2021/12/15 00:02:23;;;;;;;6.53;3.15;;;9.80;99.90;;;;;;6283011;22;20025;-87
2021/12/15 00:04:51;;;;;;;9.73;4.40;;;9.80;99.90;;;;;;6283085;22;20062;-87
2021/12/15 00:07:19;;;;;;;5.82;3.15;;;9.80;99.90;;;;;;6282408;22;20016;-87
2021/12/15 00:09:45;;;;;;;10.00;5.78;;;9.80;99.90;;;;;;6282979;22;20020;-87
2021/12/15 00:12:13;;;;;;;3.65;2.40;;;9.80;99.90;;;;;;6309665;22;20062;-87
2021/12/15 00:14:41;;;;;;;5.07;2.80;;;9.80;99.90;;;;;;6284947;22;20028;-87
2021/12/15 00:17:06;;;;;;;9.55;4.78;;;9.90;99.90;;;;;;6284690;22;20021;-87
2021/12/15 00:19:32;;;;;;;9.80;4.53;;;9.80;99.90;;;;;;6285029;22;20017;-87
2021/12/15 00:21:59;;;;;;;4.35;3.35;;;9.80;99.90;;;;;;6311129;22;20331;-87
2021/12/15 00:24:25;;;;;;;2.08;1.60;;;9.80;99.90;;;;;;6285573;22;20015;-87
2021/12/15 00:26:53;;;;;;;9.15;3.78;;;9.90;99.90;;;;;;6290031;22;20343;-87
2021/12/15 00:29:19;;;;;;;5.07;2.65;;;9.80;99.90;;;;;;6316461;22;20038;-87
2021/12/15 00:31:46;;;;;;;8.35;4.07;;;9.80;99.90;;;;;;6289993;22;20013;-86
2021/12/15 00:34:12;;;;;;;12.32;5.43;;;9.80;99.90;;;;;;6290104;22;20084;-87
2021/12/15 00:36:39;;;;;;;14.63;8.68;;;9.90;99.90;;;;;;6290065;22;20534;-87
2021/12/15 00:39:06;;;;;;;9.20;4.90;;;9.80;99.90;;;;;;6289877;22;20091;-87
2021/12/15 00:41:32;;;;;;;4.00;2.45;;;9.80;99.90;;;;;;6289617;22;20099;-87
2021/12/15 00:43:58;;;;;;;9.38;4.60;;;9.80;99.90;;;;;;6315157;22;20048;-87
2021/12/15 00:46:24;;;;;;;9.30;5.07;;;9.80;99.90;;;;;;6315244;22;20102;-87
2021/12/15 00:48:50;;;;;;;8.52;3.92;;;9.80;99.90;;;;;;6289878;22;20020;-87
2021/12/15 00:51:16;;;;;;;8.80;5.13;;;9.80;99.90;;;;;;6289208;22;20032;-87
2021/12/15 00:53:41;;;;;;;10.23;5.53;;;9.80;99.90;;;;;;6289697;22;20028;-87
2021/12/15 00:56:07;;;;;;;11.43;5.50;;;9.80;99.90;;;;;;6315653;22;20418;-87
2021/12/15 00:58:33;;;;;;;11.00;6.55;;;9.80;99.90;;;;;;6263509;22;20013;-86
2021/12/15 01:01:01;;;;;;;3.78;2.05;;;9.80;99.90;;;;;;6289685;22;20028;-87
2021/12/15 01:03:29;;;;;;;13.35;5.32;;;9.80;99.90;;;;;;6289005;22;20012;-87
2021/12/15 01:06:03;;;;;;;14.38;7.70;;;9.80;99.90;;;;;;6287830;22;20103;-87
2021/12/15 01:08:32;;;;;;;15.48;6.80;;;9.80;99.90;;;;;;6288124;22;20012;-87
2021/12/15 01:21:51;;;;;;;16.58;6.07;;;9.80;99.90;;;;;;6315981;22;20024;-87
2021/12/15 01:24:17;;;;;;;7.97;4.65;;;9.80;99.90;;;;;;6263768;22;20009;-87
2021/12/15 01:26:43;;;;;;;11.25;5.55;;;9.80;99.90;;;;;;6289964;22;20020;-87
2021/12/15 01:29:09;;;;;;;9.30;4.40;;;9.70;99.90;;;;;;6159434;22;20013;-87
2021/12/15 01:31:36;;;;;;;16.63;7.72;;;9.70;99.90;;;;;;6290275;22;20054;-87
2021/12/15 01:34:02;;;;;;;9.35;4.70;;;9.80;99.90;;;;;;6290367;22;20679;-87
2021/12/15 01:36:28;;;;;;;14.93;6.10;;;9.80;99.90;;;;;;6159207;22;20021;-87
2021/12/15 01:38:53;;;;;;;9.68;4.65;;;9.70;99.90;;;;;;6289867;22;20327;-87
2021/12/15 01:41:22;;;;;;;9.65;4.32;;;9.80;99.90;;;;;;6290406;22;20445;-87
2021/12/15 01:47:04;;;;;;;14.38;5.78;;;9.80;99.90;;;;;;6184029;22;20025;-87
2021/12/15 01:49:38;;;;;;;8.60;4.72;;;9.70;99.90;;;;;;6160018;23;20050;-86
2021/12/15 01:52:23;;;;;;;13.15;5.10;;;9.80;99.90;;;;;;6159321;23;20049;-87
2021/12/15 01:55:05;;;;;;;5.07;3.20;;;9.80;99.90;;;;;;6184300;22;20023;-87
2021/12/15 01:57:33;;;;;;;14.98;7.55;;;9.80;99.90;;;;;;6159209;22;20012;-87
2021/12/15 02:00:02;;;;;;;12.20;6.05;;;9.80;99.90;;;;;;6159757;22;20017;-86
2021/12/15 02:02:28;;;;;;;7.57;4.85;;;9.80;99.90;;;;;;6159073;23;20017;-87
2021/12/15 02:04:54;;;;;;;6.55;3.92;;;9.80;99.90;;;;;;6159183;23;20023;-87
2021/12/15 02:07:22;;;;;;;12.57;5.65;;;9.80;99.90;;;;;;6183376;23;20065;-87
2021/12/15 02:12:22;;;;;;;6.82;3.58;;;9.80;99.90;;;;;;6184086;23;20017;-87
2021/12/15 02:14:49;;;;;;;10.25;4.03;;;9.70;99.90;;;;;;6159250;23;20346;-87
2021/12/15 02:17:14;;;;;;;10.98;4.00;;;9.80;99.90;;;;;;6184356;22;20009;-87
2021/12/15 02:19:40;;;;;;;13.40;6.25;;;9.80;99.90;;;;;;6159303;22;20065;-87
2021/12/15 02:22:06;;;;;;;16.75;7.57;;;9.80;99.90;;;;;;6159093;23;20062;-87
2021/12/15 02:24:34;;;;;;;8.07;3.80;;;9.80;99.90;;;;;;6159585;22;20012;-87
2021/12/15 02:27:01;;;;;;;12.13;3.20;;;9.80;99.90;;;;;;6158845;23;20020;-87
2021/12/15 02:29:33;;;;;;;16.33;6.78;;;9.80;99.90;;;;;;6159306;22;20013;-87
2021/12/15 02:37:27;;;;;;;18.42;6.85;;;9.80;99.90;;;;;;6183764;23;20081;-87
2021/12/15 02:40:00;;;;;;;15.35;6.15;;;9.80;99.90;;;;;;6159201;23;20012;-87
2021/12/15 02:42:31;;;;;;;8.27;4.18;;;9.80;99.90;;;;;;6159428;23;20091;-87
2021/12/15 02:44:58;;;;;;;11.85;5.78;;;9.90;99.90;;;;;;6159506;22;20077;-87
2021/12/15 02:47:26;;;;;;;7.32;4.15;;;9.80;99.90;;;;;;6159143;22;20095;-87
2021/12/15 02:49:54;;;;;;;6.32;3.33;;;9.80;99.90;;;;;;6159760;22;20009;-86
2021/12/15 02:52:20;;;;;;;6.63;3.22;;;9.80;99.90;;;;;;6159035;23;20013;-87
2021/12/15 02:54:46;;;;;;;9.85;6.07;;;9.80;99.90;;;;;;6158922;23;20442;-87
2021/12/15 02:57:13;;;;;;;12.13;5.35;;;9.80;99.90;;;;;;6159200;22;20019;-87
2021/12/15 02:59:57;;;;;;;11.40;5.30;;;9.80;99.90;;;;;;6158978;23;20067;-86
2021/12/15 03:07:48;;;;;;;17.77;6.15;;;9.80;99.90;;;;;;6183527;23;20020;-87
2021/12/15 03:15:56;;;;;;;16.98;8.20;;;9.80;99.90;;;;;;6183478;23;20020;-86
2021/12/15 03:18:25;;;;;;;10.48;5.53;;;9.80;99.90;;;;;;6158769;23;20019;-86
2021/12/15 03:20:55;;;;;;;13.05;5.72;;;9.70;99.90;;;;;;6158614;23;20031;-86
2021/12/15 03:23:38;;;;;;;10.18;5.35;;;9.80;99.90;;;;;;6158746;23;20013;-87
2021/12/15 03:26:06;;;;;;;18.52;7.68;;;9.70;99.90;;;;;;6158591;23;20017;-87
2021/12/15 03:39:25;;;;;;;11.52;5.95;;;9.70;99.90;;;;;;6183522;23;20020;-87
2021/12/15 03:41:59;;;;;;;12.18;6.75;;;9.70;99.90;;;;;;6159139;22;20027;-86
2021/12/15 03:44:26;;;;;;;8.50;5.07;;;9.70;99.90;;;;;;6158526;23;20375;-86
2021/12/15 03:46:52;;;;;;;7.47;4.28;;;9.70;99.90;;;;;;6158112;23;20021;-86
2021/12/15 03:49:18;;;;;;;25.88;11.68;;;9.70;99.90;;;;;;6158417;23;20019;-87
2021/12/15 03:51:44;;;;;;;27.27;12.10;;;9.70;99.90;;;;;;6158767;23;20345;-87
2021/12/15 03:54:10;;;;;;;19.60;8.07;;;9.70;99.90;;;;;;6158622;23;20019;-87
2021/12/15 03:56:40;;;;;;;18.42;8.00;;;9.70;99.90;;;;;;6158229;23;20158;-86
2021/12/15 03:59:05;;;;;;;14.93;5.80;;;9.70;99.90;;;;;;6158305;23;20325;-87
2021/12/15 04:01:31;;;;;;;13.30;7.03;;;9.70;99.90;;;;;;6158687;23;20012;-87
2021/12/15 04:03:57;;;;;;;17.35;8.23;;;9.70;99.90;;;;;;6182934;23;20038;-87
2021/12/15 04:06:27;;;;;;;21.02;9.02;;;9.70;99.90;;;;;;6158178;22;20042;-87
2021/12/15 04:08:54;;;;;;;31.73;7.60;;;9.70;99.90;;;;;;6158316;23;20095;-87
2021/12/15 04:11:22;;;;;;;8.50;4.40;;;9.70;99.90;;;;;;6158355;23;20070;-87
2021/12/15 04:13:48;;;;;;;25.85;10.15;;;9.70;99.90;;;;;;6158550;23;20059;-87
2021/12/15 04:16:41;;;;;;;20.35;11.40;;;9.70;99.90;;;;;;6158182;22;20417;-88
2021/12/15 04:19:16;;;;;;;9.13;5.85;;;9.70;99.90;;;;;;6158559;22;20096;-87
2021/12/15 04:21:43;;;;;;;27.77;10.88;;;9.70;99.90;;;;;;6158409;23;20012;-87
2021/12/15 04:24:12;;;;;;;25.85;11.13;;;9.70;99.90;;;;;;6159144;22;20009;-87
2021/12/15 04:26:38;;;;;;;8.55;4.28;;;9.70;99.90;;;;;;6158066;23;20023;-87
2021/12/15 04:29:05;;;;;;;7.30;3.55;;;9.70;99.90;;;;;;6182945;22;20236;-87
2021/12/15 04:31:34;;;;;;;14.52;6.00;;;9.60;99.90;;;;;;6158262;23;20346;-87
2021/12/15 04:34:04;;;;;;;49.50;11.98;;;9.70;99.90;;;;;;6158131;23;20017;-87
2021/12/15 04:36:37;;;;;;;13.68;7.30;;;9.60;99.90;;;;;;6158195;23;20017;-86
2021/12/15 04:39:06;;;;;;;17.30;8.27;;;9.60;99.90;;;;;;6158320;22;20016;-87
2021/12/15 04:41:33;;;;;;;23.90;11.93;;;9.60;99.90;;;;;;6158235;22;20016;-87
2021/12/15 04:44:01;;;;;;;15.77;5.53;;;9.60;99.90;;;;;;6182890;22;20077;-87
2021/12/15 04:46:34;;;;;;;17.90;8.05;;;9.60;99.90;;;;;;6157954;23;20069;-87
2021/12/15 04:49:03;;;;;;;6.85;4.80;;;9.60;99.90;;;;;;6158275;23;20080;-87
2021/12/15 04:51:30;;;;;;;11.60;6.03;;;9.60;99.90;;;;;;6158075;23;20012;-87
2021/12/15 04:53:57;;;;;;;23.70;11.35;;;9.60;99.90;;;;;;6182814;23;20024;-87
2021/12/15 04:56:25;;;;;;;24.10;10.57;;;9.60;99.90;;;;;;6158392;22;20017;-87
2021/12/15 04:58:53;;;;;;;26.48;10.75;;;9.60;99.90;;;;;;6158984;22;20016;-87
2021/12/15 05:01:19;;;;;;;13.55;8.20;;;9.60;99.90;;;;;;6159766;23;20323;-87
2021/12/15 05:03:45;;;;;;;17.40;9.93;;;9.60;99.90;;;;;;6183495;22;20048;-87
2021/12/15 05:06:11;;;;;;;7.10;4.63;;;9.70;99.90;;;;;;6159280;22;20357;-87
2021/12/15 05:08:38;;;;;;;16.55;7.53;;;9.70;99.90;;;;;;6159555;23;20020;-87
2021/12/15 05:11:05;;;;;;;10.50;5.22;;;9.60;99.90;;;;;;6184320;23;20019;-87
2021/12/15 05:13:32;;;;;;;23.23;10.40;;;9.70;99.90;;;;;;6159441;22;20078;-87
2021/12/15 05:15:59;;;;;;;11.88;6.82;;;9.60;99.90;;;;;;6159281;23;20012;-87
2021/12/15 05:18:25;;;;;;;19.77;9.77;;;9.60;99.90;;;;;;6159065;23;20062;-87
2021/12/15 05:20:53;;;;;;;8.35;4.05;;;9.60;99.90;;;;;;6159287;23;20024;-87
2021/12/15 05:23:20;;;;;;;12.18;6.28;;;9.60;99.90;;;;;;6183770;23;20008;-87
2021/12/15 05:25:47;;;;;;;16.60;8.50;;;9.60;99.90;;;;;;6159231;23;20012;-87
2021/12/15 05:28:14;;;;;;;15.02;6.60;;;9.60;99.90;;;;;;6159774;22;20446;-87
2021/12/15 05:30:40;;;;;;;24.45;7.65;;;9.60;99.90;;;;;;6159396;23;20017;-87
2021/12/15 05:33:06;;;;;;;8.80;4.82;;;9.60;99.90;;;;;;6159557;22;20123;-87
2021/12/15 05:35:33;;;;;;;13.10;4.30;;;9.60;99.90;;;;;;6159282;23;20100;-87
2021/12/15 05:38:00;;;;;;;18.20;8.57;;;9.60;99.90;;;;;;6158926;23;20015;-87
2021/12/15 05:40:28;;;;;;;15.15;8.02;;;9.60;99.90;;;;;;6159269;23;20016;-87
2021/12/15 05:42:56;;;;;;;28.65;12.95;;;9.60;99.90;;;;;;6159298;22;20024;-87
2021/12/15 05:45:27;;;;;;;16.23;8.23;;;9.60;99.90;;;;;;6159256;23;20096;-87
2021/12/15 05:47:55;;;;;;;19.42;7.53;;;9.60;99.90;;;;;;6183832;23;20024;-87
2021/12/15 05:50:22;;;;;;;9.38;4.20;;;9.60;99.90;;;;;;6159128;23;20346;-87
2021/12/15 05:52:48;;;;;;;21.42;9.88;;;9.60;99.90;;;;;;6159742;22;20027;-87
2021/12/15 05:55:14;;;;;;;5.05;3.33;;;9.60;99.90;;;;;;6159086;23;20016;-87
2021/12/15 05:57:40;;;;;;;19.13;8.52;;;9.60;99.90;;;;;;6183994;22;20024;-87
2021/12/15 06:00:10;;;;;;;9.75;5.75;;;9.60;99.90;;;;;;6159094;23;20073;-87
2021/12/15 06:02:36;;;;;;;12.18;5.43;;;9.60;99.90;;;;;;6184068;22;20494;-87
2021/12/15 06:05:02;;;;;;;14.80;4.90;;;9.60;99.90;;;;;;6159639;23;20020;-87
2021/12/15 06:07:28;;;;;;;17.02;8.85;;;9.60;99.90;;;;;;6159399;22;20009;-87
2021/12/15 06:09:53;;;;;;;10.55;5.75;;;9.60;99.90;;;;;;6159194;23;20467;-88
2021/12/15 06:12:19;;;;;;;10.68;6.18;;;9.60;99.90;;;;;;6159409;23;20364;-87
2021/12/15 06:14:44;;;;;;;5.40;3.17;;;9.60;99.90;;;;;;6159090;23;20023;-87
2021/12/15 06:17:12;;;;;;;19.40;9.18;;;9.60;99.90;;;;;;6158833;23;20024;-87
2021/12/15 06:19:39;;;;;;;11.15;6.85;;;9.60;99.90;;;;;;6183776;22;20020;-87
2021/12/15 06:22:06;;;;;;;12.43;5.60;;;9.60;99.90;;;;;;6159082;22;20065;-87
2021/12/15 06:24:32;;;;;;;7.80;4.57;;;9.60;99.90;;;;;;6158432;23;20009;-87
2021/12/15 06:27:04;;;;;;;12.13;6.18;;;9.60;99.90;;;;;;6159010;22;20020;-87
2021/12/15 06:29:31;;;;;;;11.20;4.50;;;9.60;99.90;;;;;;6159318;23;20020;-87
2021/12/15 06:31:57;;;;;;;7.05;4.15;;;9.60;99.90;;;;;;6159062;23;20438;-87
2021/12/15 06:34:22;;;;;;;16.60;8.13;;;9.60;99.90;;;;;;6158649;23;20018;-87
2021/12/15 06:36:48;;;;;;;19.83;8.23;;;9.60;99.90;;;;;;6159116;22;20027;-87
2021/12/15 06:39:15;;;;;;;7.32;4.22;;;9.60;99.90;;;;;;6159482;22;20455;-87
2021/12/15 06:41:41;;;;;;;5.88;3.55;;;9.60;99.90;;;;;;6183548;23;20016;-87
2021/12/15 06:44:08;;;;;;;23.55;9.30;;;9.60;99.90;;;;;;6183689;22;20048;-87
2021/12/15 06:59:57;;;;;;;11.93;5.57;;;9.60;99.90;;;;;;6183324;23;20028;-87
2021/12/15 07:02:24;;;;;;;14.57;5.88;;;9.60;99.90;;;;;;6158748;23;20048;-87
2021/12/15 07:04:49;;;;;;;6.75;4.65;;;9.60;99.90;;;;;;6158756;22;20059;-87
2021/12/15 07:07:15;;;;;;;11.00;4.10;;;9.60;99.90;;;;;;6183986;22;20013;-86
2021/12/15 07:09:41;;;;;;;14.93;6.85;;;9.60;99.90;;;;;;6154295;23;20073;-87
2021/12/15 07:12:07;;;;;;;21.55;8.27;;;9.60;99.90;;;;;;6184334;22;20100;-87
2021/12/15 07:14:33;;;;;;;6.18;3.25;;;9.60;99.90;;;;;;6158649;22;20020;-87
2021/12/15 07:16:59;;;;;;;14.55;7.40;;;9.60;99.90;;;;;;6158855;22;20013;-87
2021/12/15 07:19:33;;;;;;;13.50;5.47;;;9.60;99.90;;;;;;6158735;23;20094;-87
2021/12/15 07:22:31;;;;;;;10.25;5.68;;;9.60;99.90;;;;;;6157418;23;20346;-87
2021/12/15 07:24:58;;;;;;;3.35;2.08;;;9.60;99.90;;;;;;6183827;22;20077;-88
2021/12/15 07:27:24;;;;;;;12.45;6.40;;;9.60;99.90;;;;;;6158426;22;20013;-87
2021/12/15 07:29:50;;;;;;;22.77;6.07;;;9.60;99.90;;;;;;6158614;22;20008;-87
2021/12/15 07:32:16;;;;;;;7.78;3.85;;;9.60;99.90;;;;;;6158897;22;20008;-87
2021/12/15 07:34:42;;;;;;;16.23;6.10;;;9.60;99.90;;;;;;6159084;23;20095;-89
2021/12/15 07:37:08;;;;;;;14.77;7.07;;;9.60;99.90;;;;;;6156362;23;20024;-89
2021/12/15 07:39:35;;;;;;;8.50;4.75;;;9.60;99.90;;;;;;6182150;22;20017;-89
2021/12/15 07:42:08;;;;;;;13.70;5.40;;;9.60;99.90;;;;;;6183562;23;20465;-89
2021/12/15 07:44:36;;;;;;;8.02;4.45;;;9.60;99.90;;;;;;6158812;23;20095;-89
2021/12/15 07:47:03;;;;;;;5.63;3.45;;;9.60;99.90;;;;;;6183904;22;20388;-87
2021/12/15 07:49:31;;;;;;;5.65;3.90;;;9.60;99.90;;;;;;6159053;22;20012;-89
2021/12/15 07:52:02;;;;;;;10.75;6.68;;;9.60;99.90;;;;;;6184261;22;20401;-89
2021/12/15 07:54:36;;;;;;;9.88;5.10;;;9.60;99.90;;;;;;6158960;23;20013;-89
2021/12/15 07:57:05;;;;;;;12.82;5.53;;;9.60;99.90;;;;;;6159076;22;20062;-89
2021/12/15 07:59:31;;;;;;;8.98;4.65;;;9.60;99.90;;;;;;6158319;23;20429;-86
2021/12/15 08:01:57;;;;;;;9.93;5.95;;;9.60;99.90;;;;;;6158611;22;20072;-87
2021/12/15 08:04:22;;;;;;;8.73;3.28;;;9.70;99.90;;;;;;6182993;22;20420;-88
2021/12/15 08:06:48;;;;;;;2.92;2.15;;;9.60;99.90;;;;;;6158841;22;20024;-87
2021/12/15 08:09:14;;;;;;;6.35;2.25;;;9.60;99.90;;;;;;6183198;23;20012;-86
2021/12/15 08:11:40;;;;;;;16.88;7.53;;;9.60;99.90;;;;;;6158260;22;20520;-86
2021/12/15 08:14:07;;;;;;;10.63;5.18;;;9.60;99.90;;;;;;6158378;23;20016;-86
2021/12/15 08:16:34;;;;;;;17.00;7.88;;;9.60;99.90;;;;;;6182733;23;20061;-86
2021/12/15 08:19:00;;;;;;;17.23;8.60;;;9.60;99.90;;;;;;6158476;22;20012;-86
2021/12/15 08:21:27;;;;;;;10.63;5.35;;;9.70;99.90;;;;;;6159068;23;20013;-86
2021/12/15 08:23:53;;;;;;;16.75;6.85;;;9.60;99.90;;;;;;6159368;23;20438;-86
2021/12/15 08:26:19;;;;;;;11.77;5.22;;;9.70;99.90;;;;;;6160029;22;20017;-86
2021/12/15 08:28:45;;;;;;;23.73;7.10;;;9.70;99.90;;;;;;6159498;23;20012;-86
2021/12/15 08:31:11;;;;;;;9.75;5.78;;;9.70;99.90;;;;;;6184454;22;20015;-87
2021/12/15 08:33:55;;;;;;;15.15;7.03;;;9.70;99.90;;;;;;6159788;23;20017;-86
2021/12/15 08:36:21;;;;;;;16.02;6.85;;;9.70;99.90;;;;;;6160725;22;20025;-87
2021/12/15 08:38:47;;;;;;;23.70;10.43;;;9.70;99.90;;;;;;6161166;22;20104;-87
2021/12/15 08:41:18;;;;;;;7.20;4.05;;;9.70;99.90;;;;;;6161984;22;20040;-86
2021/12/15 08:43:44;;;;;;;14.38;5.88;;;9.70;99.90;;;;;;6161545;22;20020;-86
2021/12/15 08:46:39;;;;;;;16.35;8.82;;;9.70;99.90;;;;;;6161488;22;20020;-86
2021/12/15 08:49:07;;;;;;;7.18;4.13;;;9.70;99.90;;;;;;6184922;22;20441;-86
2021/12/15 08:51:34;;;;;;;15.73;6.60;;;9.80;99.90;;;;;;6185321;23;20016;-87
2021/12/15 08:54:10;;;;;;;19.88;10.40;;;9.70;99.90;;;;;;6160365;23;20022;-86
2021/12/15 08:56:36;;;;;;;17.30;8.20;;;9.80;99.90;;;;;;6160513;22;20017;-87
2021/12/15 08:59:04;;;;;;;16.10;7.63;;;9.80;99.90;;;;;;6185295;22;20051;-87
2021/12/15 09:01:29;;;;;;;11.85;4.55;;;9.80;99.90;;;;;;6160587;23;20057;-86
2021/12/15 09:03:55;;;;;;;12.98;5.07;;;9.80;99.90;;;;;;6160073;22;20016;-87
2021/12/15 09:06:21;;;;;;;15.10;6.88;;;9.80;99.90;;;;;;6159074;23;20016;-88
2021/12/15 09:08:47;;;;;;;13.63;4.22;;;9.90;99.90;;;;;;6159999;22;20066;-86
2021/12/15 09:11:17;;;;;;;13.70;7.22;;;9.80;99.90;;;;;;6184348;22;20016;-87
2021/12/15 09:13:47;;;;;;;17.88;8.43;;;9.80;99.90;;;;;;6184258;22;20089;-87
2021/12/15 09:16:13;;;;;;;5.43;2.97;;;9.90;99.90;;;;;;6159417;23;20017;-87
2021/12/15 09:18:42;;;;;;;12.27;5.63;;;9.80;99.90;;;;;;6159283;23;20024;-88
2021/12/15 09:21:10;;;;;;;18.48;9.07;;;9.90;99.90;;;;;;6184186;22;20020;-87
2021/12/15 09:23:36;;;;;;;4.75;2.88;;;9.90;99.90;;;;;;6159413;22;20071;-87
2021/12/15 09:26:03;;;;;;;5.85;3.38;;;9.90;99.90;;;;;;6159535;23;20409;-87
2021/12/15 09:28:30;;;;;;;27.70;12.07;;;9.90;99.90;;;;;;6161056;22;20442;-88
2021/12/15 09:30:56;;;;;;;15.82;7.43;;;9.90;99.90;;;;;;6160624;22;20009;-87
2021/12/15 09:33:30;;;;;;;15.02;7.43;;;10.00;99.90;;;;;;6160212;23;20062;-88
2021/12/15 09:36:29;;;;;;;6.87;3.00;;;10.00;99.90;;;;;;6185502;23;20473;-88
2021/12/15 09:39:00;;;;;;;1.00;0.93;;;10.00;99.90;;;;;;6185287;22;20251;-87
2021/12/15 09:41:27;;;;;;;13.95;8.13;;;10.00;99.90;;;;;;6159184;23;20061;-87
2021/12/15 09:43:55;;;;;;;12.98;4.97;;;10.00;99.90;;;;;;6158762;22;20071;-87
2021/12/15 10:20:52;;;;;;;14.90;6.85;;;10.40;99.90;;;;;;6184465;22;20024;-89
2021/12/15 10:23:33;;;;;;;11.55;5.72;;;10.40;99.90;;;;;;6183788;23;20020;-88
2021/12/15 10:25:59;;;;;;;18.77;5.40;;;10.40;99.90;;;;;;6159750;23;20021;-88
2021/12/15 10:28:28;;;;;;;7.82;4.10;;;10.40;99.90;;;;;;6159953;23;20009;-88
2021/12/15 10:30:57;;;;;;;10.95;5.53;;;10.40;99.90;;;;;;6158792;23;20027;-89
2021/12/15 10:33:27;;;;;;;8.32;3.53;;;10.30;99.90;;;;;;6159192;23;20449;-88
2021/12/15 10:36:01;;;;;;;12.80;5.82;;;10.30;99.90;;;;;;6158905;23;20024;-88
2021/12/15 10:38:30;;;;;;;8.43;4.05;;;10.30;99.90;;;;;;6158788;23;20016;-87
2021/12/15 10:41:18;;;;;;;9.50;4.78;;;10.30;99.90;;;;;;6159211;23;20016;-87
2021/12/15 10:44:03;;;;;;;13.55;4.78;;;10.30;99.90;;;;;;6159770;22;20016;-88
2021/12/15 10:47:08;;;;;;;11.10;4.70;;;10.30;99.90;;;;;;6159401;22;20016;-86
2021/12/15 10:49:39;;;;;;;7.68;4.70;;;10.30;99.90;;;;;;6159883;22;20013;-87
2021/12/15 10:52:10;;;;;;;8.13;3.75;;;10.40;99.90;;;;;;6160671;22;20376;-89
2021/12/15 10:54:45;;;;;;;4.50;3.45;;;10.40;99.90;;;;;;6160063;23;20020;-85
2021/12/15 10:57:17;;;;;;;4.32;2.00;;;10.50;99.90;;;;;;6159852;23;20020;-86
2021/12/15 10:59:46;;;;;;;12.13;6.07;;;10.50;99.90;;;;;;6159715;22;20048;-86
2021/12/15 11:02:23;;;;;;;5.90;2.72;;;10.50;99.90;;;;;;6159771;23;20016;-86
2021/12/15 11:05:05;;;;;;;7.13;4.30;;;10.50;99.90;;;;;;6160332;23;20369;-87
2021/12/15 11:07:53;;;;;;;12.73;5.75;;;10.60;99.90;;;;;;6185198;22;20043;-86
2021/12/15 11:10:31;;;;;;;4.13;2.47;;;10.60;99.90;;;;;;6160360;23;20055;-86
2021/12/15 11:13:17;;;;;;;9.30;4.90;;;10.60;99.90;;;;;;6159661;23;20016;-87
2021/12/15 11:15:46;;;;;;;5.22;3.20;;;10.60;99.90;;;;;;6158965;22;20050;-87
2021/12/15 11:18:19;;;;;;;11.18;5.05;;;10.60;99.90;;;;;;6159880;23;20016;-88
2021/12/15 11:21:03;;;;;;;17.67;6.38;;;10.50;99.90;;;;;;6159556;23;20641;-86
2021/12/15 11:23:31;;;;;;;10.25;5.43;;;10.60;99.90;;;;;;6159568;22;20017;-86
2021/12/15 11:26:04;;;;;;;7.63;2.50;;;10.60;99.90;;;;;;6159741;23;20024;-86
2021/12/15 11:28:33;;;;;;;3.78;2.17;;;10.60;99.90;;;;;;6158294;23;20020;-86
2021/12/15 11:31:09;;;;;;;18.02;7.05;;;10.60;99.90;;;;;;6158442;22;20455;-86
2021/12/15 11:33:56;;;;;;;6.97;3.38;;;10.60;99.90;;;;;;6158896;22;20069;-87
2021/12/15 11:36:26;;;;;;;9.68;4.38;;;10.60;99.90;;;;;;6181569;22;20021;-87
2021/12/15 11:39:06;;;;;;;22.25;7.32;;;10.60;99.90;;;;;;6158410;23;20020;-86
2021/12/15 11:41:37;;;;;;;5.82;3.63;;;10.60;99.90;;;;;;6157141;23;20055;-86
2021/12/15 11:44:18;;;;;;;20.15;5.65;;;10.60;99.90;;;;;;6158680;22;20012;-87
2021/12/15 11:46:54;;;;;;;20.77;5.30;;;10.70;99.90;;;;;;6181561;22;20115;-86
2021/12/15 11:49:24;;;;;;;6.13;3.78;;;10.70;99.90;;;;;;6157153;22;20049;-87
2021/12/15 11:51:57;;;;;;;9.93;4.43;;;10.70;99.90;;;;;;6181294;23;20024;-86
2021/12/15 11:54:23;;;;;;;6.47;3.42;;;10.70;99.90;;;;;;6157685;22;20020;-87
2021/12/15 11:56:51;;;;;;;8.30;3.90;;;10.70;99.90;;;;;;6180739;22;20098;-86
2021/12/15 11:59:30;;;;;;;5.68;3.80;;;10.70;99.90;;;;;;6157744;23;20448;-86
2021/12/15 12:02:01;;;;;;;10.95;5.97;;;10.70;99.90;;;;;;6158656;23;20515;-86
2021/12/15 12:04:31;;;;;;;2.67;1.83;;;10.70;99.90;;;;;;6157550;23;20038;-87
2021/12/15 12:07:37;;;;;;;4.25;2.38;;;10.70;99.90;;;;;;6156851;23;20021;-86
2021/12/15 12:10:10;;;;;;;7.32;4.15;;;10.70;99.90;;;;;;6163613;23;20013;-89
2021/12/15 12:12:40;;;;;;;8.93;4.50;;;10.70;99.90;;;;;;6214450;23;20437;-89
2021/12/15 12:15:09;;;;;;;8.48;4.43;;;10.70;99.90;;;;;;6188193;22;20109;-88
2021/12/15 12:17:39;;;;;;;6.03;3.45;;;10.70;99.90;;;;;;6159300;23;20344;-87
2021/12/15 12:20:11;;;;;;;13.15;3.97;;;10.80;99.90;;;;;;6184429;23;20097;-86
2021/12/15 12:22:39;;;;;;;11.77;3.65;;;10.80;99.90;;;;;;6160911;22;20091;-87
2021/12/15 12:25:17;;;;;;;10.18;4.45;;;10.70;99.90;;;;;;6160873;23;20346;-87
2021/12/15 12:27:44;;;;;;;11.35;4.15;;;10.70;99.90;;;;;;6186369;22;20077;-88
2021/12/15 12:30:27;;;;;;;7.25;3.55;;;10.70;99.90;;;;;;6161401;22;20457;-86
2021/12/15 12:32:53;;;;;;;7.10;2.75;;;10.70;99.90;;;;;;6160903;22;20020;-88
2021/12/15 12:35:23;;;;;;;9.05;2.65;;;10.70;99.90;;;;;;6186074;22;20014;-87
2021/12/15 12:38:00;;;;;;;2.78;1.73;;;10.70;99.90;;;;;;6161012;22;20013;-87
2021/12/15 12:40:36;;;;;;;7.18;2.67;;;10.70;99.90;;;;;;6161280;22;20027;-87
2021/12/15 12:43:45;;;;;;;10.10;4.15;;;10.70;99.90;;;;;;6185574;23;20026;-87
2021/12/15 12:46:35;;;;;;;4.82;2.60;;;10.70;99.90;;;;;;6164374;23;20025;-87
2021/12/15 13:00:41;;;;;;;7.95;2.75;;;10.70;99.90;;;;;;6184943;22;20017;-84
2021/12/15 13:03:13;;;;;;;;;;;10.60;99.90;;;;;;6161424;23;20008;-85
2021/12/15 13:05:46;;;;;;;3.22;1.30;;;10.70;99.90;;;;;;6160760;22;19915;-85
2021/12/15 13:08:22;;;;;;;3.28;2.20;;;10.60;99.90;;;;;;6185285;23;20008;-84
2021/12/15 13:10:49;;;;;;;14.75;2.75;;;10.60;99.90;;;;;;6160641;23;20053;-86
2021/12/15 13:13:18;;;;;;;4.30;1.52;;;10.60;99.90;;;;;;6160585;23;20017;-86
2021/12/15 13:15:59;;;;;;;5.68;2.78;;;10.60;99.90;;;;;;6160697;23;20017;-86
2021/12/15 13:18:27;;;;;;;5.03;2.47;;;10.60;99.90;;;;;;6159987;22;20062;-86
2021/12/15 13:21:00;;;;;;;2.35;1.17;;;10.60;99.90;;;;;;6136070;23;20021;-86
2021/12/15 13:23:59;;;;;;;10.10;2.90;;;10.60;99.90;;;;;;6160395;23;20057;-87
2021/12/15 13:29:39;;;;;;;3.63;1.98;;;10.50;99.90;;;;;;6185054;22;20385;-85
2021/12/15 13:32:06;;;;;;;0.95;0.90;;;10.50;99.90;;;;;;6160682;23;20048;-85
2021/12/15 13:34:38;;;;;;;3.30;1.05;;;10.50;99.90;;;;;;6185567;22;20027;-85
2021/12/15 13:37:05;;;;;;;2.92;1.60;;;10.50;99.90;;;;;;6185057;23;20027;-86
2021/12/15 13:39:44;;;;;;;2.40;2.15;;;10.50;99.90;;;;;;6184989;23;20453;-86
2021/12/15 13:42:33;;;;;;;24.63;1.63;;;10.50;99.90;;;;;;6184672;23;20488;-85
2021/12/15 13:44:58;;;;;;;8.32;2.95;;;10.50;99.90;;;;;;6159268;22;20434;-86
2021/12/15 13:47:25;;;;;;;2.08;1.42;;;10.50;99.90;;;;;;6159724;23;20016;-86
2021/12/15 13:50:02;;;;;;;2.97;1.85;;;10.50;99.90;;;;;;6160487;23;20054;-84
2021/12/15 13:52:43;;;;;;;7.55;2.53;;;10.40;99.90;;;;;;6160594;22;20437;-85
2021/12/15 13:55:34;;;;;;;4.25;1.58;;;10.40;99.90;;;;;;6160171;23;20145;-85
2021/12/15 13:58:18;;;;;;;3.45;2.30;;;10.40;99.90;;;;;;6160389;23;20008;-86
2021/12/15 14:00:54;;;;;;;4.63;2.25;;;10.40;99.90;;;;;;6160366;23;20315;-87
2021/12/15 14:03:27;;;;;;;2.40;1.45;;;10.40;99.90;;;;;;6160548;23;20012;-87
2021/12/15 14:06:08;;;;;;;3.17;1.40;;;10.30;99.90;;;;;;6160838;23;20462;-88
2021/12/15 14:08:53;;;;;;;8.88;1.58;;;10.30;99.90;;;;;;6160682;23;20077;-87
2021/12/15 14:11:28;;;;;;;3.90;0.70;;;10.20;99.90;;;;;;6160299;23;20349;-88
2021/12/15 14:13:56;;;;;;;0.73;0.70;;;10.20;99.90;;;;;;6186337;22;20023;-89
2021/12/15 14:16:52;;;;;;;4.80;1.27;;;10.20;99.90;;;;;;6159970;23;20032;-87
2021/12/15 14:19:36;;;;;;;4.60;1.23;;;10.20;99.90;;;;;;6160104;22;20437;-86
2021/12/15 14:22:10;;;;;;;1.10;1.00;;;10.10;99.90;;;;;;6136024;23;20429;-86
2021/12/15 14:24:37;;;;;;;1.27;0.85;;;10.10;99.90;;;;;;6160155;23;20009;-87
2021/12/15 14:27:04;;;;;;;0.30;0.30;;;10.00;99.90;;;;;;6160241;22;20012;-87
2021/12/15 14:29:33;;;;;;;1.77;0.93;;;10.00;99.90;;;;;;6160361;22;20480;-86
2021/12/15 14:32:00;;;;;;;0.68;0.43;;;10.00;99.90;;;;;;6160226;22;20009;-87
2021/12/15 14:34:31;;;;;;;0.30;0.30;;;9.90;99.90;;;;;;6161793;22;20020;-87
2021/12/15 14:37:12;;;;;;;1.25;1.02;;;9.90;99.90;;;;;;6184665;22;20017;-87
2021/12/15 14:39:40;;;;;;;1.05;0.77;;;9.90;99.90;;;;;;6160886;22;20017;-86
2021/12/15 14:42:12;;;;;;;0.20;0.20;;;9.90;99.90;;;;;;6160260;23;20072;-85
2021/12/15 14:44:41;;;;;;;0.50;0.50;;;9.90;99.90;;;;;;6160903;22;20013;-85
2021/12/15 14:47:29;;;;;;;2.00;0.80;;;9.80;99.90;;;;;;6159698;22;20441;-85
2021/12/15 14:50:10;;;;;;;0.82;0.75;;;9.80;99.90;;;;;;6158711;23;20102;-85
2021/12/15 14:52:39;;;;;;;0.40;0.30;;;9.80;99.90;;;;;;6290334;22;20019;-86